Anastasia Island, Florida
Current Conditions -  °F | °C
As of 10:58 PM on Monday 20 Oct 2014 (Local Time) from KSGJ Reporting Station
Clear Clear  
Wind Chill: 23°   Ceiling: Unl
Heat Index: 23°   Visibility: 10mi
Dew Point: 20°   Wind: 3mph
Humidity: 82%   Direction: 170°S
Pressure: 29.99"   Gusts: NA
Location:  29.8475°N, 81.2787°W
Report Text: KSGJ 210258Z AUTO 17003KT 10SM CLR 23/20 A2999 RMK AO2 SLP156 T02330200 50003
Loading
Personal Weather Stations






























Interactive Weather Map
Tropical Storm Tracking
New forecast layout! Learn more

10-Day Weather Forecast

Advertisements
Track Severe Weather on mobile